Time;durP1;ratioP1;P1;durP2;ratioP2;P2;SDS_P1;SDS_P2;PMS_P1;PMS_P2;Temp;Humidity;BMP_temperature;BMP_pressure;BME280_temperature;BME280_humidity;BME280_pressure;Samples;Min_cycle;Max_cycle;Signal;HPM_P1;HPM_P2
2023/09/10 00:00:32;;;;;;;39.03;31.58;;;22.50;99.90;;;;;;5089722;28;20525;-76
2023/09/10 00:02:58;;;;;;;45.25;33.85;;;22.50;99.90;;;;;;5091815;28;20486;-76
2023/09/10 00:05:24;;;;;;;42.65;31.60;;;22.40;99.90;;;;;;5094255;28;20069;-76
2023/09/10 00:07:49;;;;;;;42.75;33.05;;;22.40;99.90;;;;;;5094680;28;20103;-76
2023/09/10 00:10:15;;;;;;;41.13;32.17;;;22.40;99.90;;;;;;5091828;28;20027;-76
2023/09/10 00:12:40;;;;;;;41.38;32.13;;;22.40;99.90;;;;;;5080052;28;20475;-76
2023/09/10 00:15:07;;;;;;;42.63;32.25;;;22.40;99.90;;;;;;5074917;28;20032;-76
2023/09/10 00:17:32;;;;;;;44.03;32.10;;;22.40;99.90;;;;;;5078108;28;20443;-76
2023/09/10 00:19:58;;;;;;;40.03;32.83;;;22.40;99.90;;;;;;5090791;28;20099;-76
2023/09/10 00:22:23;;;;;;;43.33;32.17;;;22.40;99.90;;;;;;5082695;28;20027;-76
2023/09/10 00:24:49;;;;;;;40.85;31.52;;;22.30;99.90;;;;;;5091631;28;20016;-76
2023/09/10 00:27:15;;;;;;;40.20;31.92;;;22.30;99.90;;;;;;5093039;28;20024;-76
2023/09/10 00:29:40;;;;;;;40.33;31.67;;;22.30;99.90;;;;;;5079566;28;20021;-76
2023/09/10 00:32:06;;;;;;;41.80;31.73;;;22.30;99.90;;;;;;5084128;28;20394;-76
2023/09/10 00:34:32;;;;;;;40.33;30.98;;;22.30;99.90;;;;;;5095133;28;20043;-77
2023/09/10 00:36:59;;;;;;;40.70;32.10;;;22.20;99.90;;;;;;5082427;28;20027;-76
2023/09/10 00:39:25;;;;;;;37.90;30.55;;;22.20;99.90;;;;;;5093013;28;20031;-76
2023/09/10 00:41:53;;;;;;;36.42;31.17;;;22.20;99.90;;;;;;5074530;28;20017;-76
2023/09/10 00:44:20;;;;;;;37.53;31.55;;;22.20;99.90;;;;;;5084390;28;20020;-76
2023/09/10 00:46:46;;;;;;;37.80;32.03;;;22.20;99.90;;;;;;5092302;28;20417;-76
2023/09/10 00:49:12;;;;;;;40.65;30.90;;;22.20;99.90;;;;;;5092199;28;20020;-76
2023/09/10 00:51:38;;;;;;;37.20;30.75;;;22.10;99.90;;;;;;5091333;28;20020;-76
2023/09/10 00:54:05;;;;;;;36.50;30.30;;;22.20;99.90;;;;;;5087405;28;20035;-76
2023/09/10 00:56:31;;;;;;;38.03;30.92;;;22.10;99.90;;;;;;5086342;28;20274;-76
2023/09/10 00:58:57;;;;;;;40.42;30.67;;;22.10;99.90;;;;;;5092923;28;20040;-76
2023/09/10 01:01:22;;;;;;;39.80;31.60;;;22.10;99.90;;;;;;5094072;28;20106;-76
2023/09/10 01:03:49;;;;;;;41.63;31.35;;;22.10;99.90;;;;;;5093108;28;20036;-76
2023/09/10 01:06:15;;;;;;;36.40;30.63;;;22.10;99.90;;;;;;5093097;28;20093;-76
2023/09/10 01:08:41;;;;;;;41.15;30.83;;;22.10;99.90;;;;;;5090443;28;20048;-76
2023/09/10 01:11:31;;;;;;;39.72;32.30;;;22.10;99.90;;;;;;5081398;28;20399;-76
2023/09/10 01:14:08;;;;;;;39.25;30.50;;;22.10;99.90;;;;;;5091756;28;20441;-76
2023/09/10 01:16:43;;;;;;;40.17;31.13;;;22.10;99.90;;;;;;5091333;28;20038;-76
2023/09/10 01:19:48;;;;;;;38.55;31.10;;;22.00;99.90;;;;;;5084117;28;20021;-76
2023/09/10 01:22:28;;;;;;;39.80;31.15;;;22.10;99.90;;;;;;5073099;28;20029;-76
2023/09/10 01:24:55;;;;;;;38.15;30.42;;;22.00;99.90;;;;;;5081088;28;20020;-76
2023/09/10 01:27:21;;;;;;;39.63;32.45;;;22.00;99.90;;;;;;5084567;28;20024;-76
2023/09/10 01:29:47;;;;;;;37.20;30.95;;;22.00;99.90;;;;;;5087940;28;20017;-76
2023/09/10 01:32:28;;;;;;;41.85;32.63;;;22.00;99.90;;;;;;5085760;28;20031;-76
2023/09/10 01:35:03;;;;;;;37.05;31.20;;;22.00;99.90;;;;;;5090747;28;20041;-76
2023/09/10 01:37:41;;;;;;;39.88;31.55;;;21.90;99.90;;;;;;5083712;28;20016;-76
2023/09/10 01:40:09;;;;;;;37.28;30.60;;;21.90;99.90;;;;;;5077679;28;20031;-76
2023/09/10 01:42:35;;;;;;;40.22;31.45;;;21.90;99.90;;;;;;5092057;28;20016;-76
2023/09/10 01:45:03;;;;;;;41.42;30.55;;;21.90;99.90;;;;;;5083644;28;20561;-76
2023/09/10 01:47:28;;;;;;;35.38;30.70;;;21.90;99.90;;;;;;5085539;28;20372;-76
2023/09/10 01:49:54;;;;;;;45.67;31.27;;;21.90;99.90;;;;;;5082272;28;20027;-76
2023/09/10 01:52:20;;;;;;;39.65;30.58;;;21.80;99.90;;;;;;5073239;28;20039;-76
2023/09/10 01:54:45;;;;;;;40.47;30.85;;;21.80;99.90;;;;;;5084915;28;20388;-76
2023/09/10 01:57:11;;;;;;;39.30;31.30;;;21.80;99.90;;;;;;5075271;28;20096;-76
2023/09/10 01:59:36;;;;;;;38.90;32.10;;;21.80;99.90;;;;;;5086997;28;20132;-76
2023/09/10 02:02:02;;;;;;;40.53;31.52;;;21.80;99.90;;;;;;5089812;28;20381;-76
2023/09/10 02:04:28;;;;;;;39.92;31.02;;;21.80;99.90;;;;;;5080419;28;20020;-76
2023/09/10 02:06:53;;;;;;;37.42;29.50;;;21.80;99.90;;;;;;5071945;28;20529;-76
2023/09/10 02:09:19;;;;;;;38.35;32.08;;;21.80;99.90;;;;;;5074127;28;20055;-76
2023/09/10 02:11:45;;;;;;;40.85;32.97;;;21.70;99.90;;;;;;5085310;28;20123;-76
2023/09/10 02:14:10;;;;;;;46.63;32.55;;;21.70;99.90;;;;;;5085575;28;20020;-76
2023/09/10 02:16:36;;;;;;;40.45;33.47;;;21.80;99.90;;;;;;5084433;28;20089;-76
2023/09/10 02:19:02;;;;;;;40.75;32.60;;;21.70;99.90;;;;;;5087293;28;20028;-76
2023/09/10 02:21:28;;;;;;;42.53;33.20;;;21.70;99.90;;;;;;5086076;28;20031;-76
2023/09/10 02:23:53;;;;;;;41.33;33.28;;;21.70;99.90;;;;;;5089823;28;20020;-75
2023/09/10 02:26:19;;;;;;;44.05;34.63;;;21.70;99.90;;;;;;5072397;28;20021;-76
2023/09/10 02:28:44;;;;;;;46.22;35.72;;;21.70;99.90;;;;;;5073983;28;20028;-76
2023/09/10 02:31:10;;;;;;;41.33;35.03;;;21.70;99.90;;;;;;5090651;28;20471;-75
2023/09/10 02:33:36;;;;;;;47.22;36.03;;;21.60;99.90;;;;;;5091125;28;20031;-76
2023/09/10 02:36:02;;;;;;;45.65;36.67;;;21.70;99.90;;;;;;5085725;28;20395;-76
2023/09/10 02:38:28;;;;;;;47.58;37.40;;;21.70;99.90;;;;;;5088039;28;20436;-76
2023/09/10 02:40:55;;;;;;;49.63;38.08;;;21.60;99.90;;;;;;5078866;28;20012;-76
2023/09/10 02:43:21;;;;;;;44.63;33.85;;;21.60;99.90;;;;;;5089791;28;20016;-76
2023/09/10 02:45:47;;;;;;;45.60;35.38;;;21.60;99.90;;;;;;5090607;28;20471;-76
2023/09/10 02:48:13;;;;;;;49.10;37.97;;;21.60;99.90;;;;;;5090995;28;20057;-76
2023/09/10 02:50:39;;;;;;;47.35;38.05;;;21.60;99.90;;;;;;5090530;28;20044;-76
2023/09/10 02:53:05;;;;;;;49.17;37.55;;;21.60;99.90;;;;;;5087622;28;20382;-76
2023/09/10 02:55:31;;;;;;;48.05;39.28;;;21.50;99.90;;;;;;5076977;28;20115;-75
2023/09/10 02:57:56;;;;;;;45.90;37.70;;;21.60;99.90;;;;;;5079226;28;20459;-76
2023/09/10 03:00:25;;;;;;;48.13;37.15;;;21.60;99.90;;;;;;5090446;28;20127;-76
2023/09/10 03:02:57;;;;;;;47.33;36.83;;;21.50;99.90;;;;;;5090577;28;20043;-76
2023/09/10 03:05:23;;;;;;;51.63;40.67;;;21.50;99.90;;;;;;5083880;28;20021;-75
2023/09/10 03:07:55;;;;;;;50.15;37.95;;;21.50;99.90;;;;;;5071966;28;20048;-76
2023/09/10 03:10:21;;;;;;;49.72;39.35;;;21.50;99.90;;;;;;5088458;28;20024;-76
2023/09/10 03:12:47;;;;;;;52.35;40.35;;;21.50;99.90;;;;;;5079659;28;20031;-75
2023/09/10 03:15:13;;;;;;;50.58;38.60;;;21.50;99.90;;;;;;5088092;28;20395;-76
2023/09/10 03:17:39;;;;;;;51.97;40.83;;;21.50;99.90;;;;;;5089638;28;20016;-76
2023/09/10 03:20:08;;;;;;;49.17;39.08;;;21.50;99.90;;;;;;5078677;28;20429;-76
2023/09/10 03:22:34;;;;;;;50.20;40.45;;;21.50;99.90;;;;;;5077795;28;20016;-76
2023/09/10 03:25:00;;;;;;;51.38;41.08;;;21.50;99.90;;;;;;5082817;28;20024;-76
2023/09/10 03:27:26;;;;;;;56.67;40.78;;;21.50;99.90;;;;;;5081078;28;20041;-76
2023/09/10 03:29:51;;;;;;;58.08;41.67;;;21.40;99.90;;;;;;5093149;28;20021;-76
2023/09/10 03:32:17;;;;;;;49.92;39.58;;;21.40;99.90;;;;;;5089492;28;20540;-76
2023/09/10 03:34:42;;;;;;;57.58;41.85;;;21.50;99.90;;;;;;5089619;28;20024;-77
2023/09/10 03:37:08;;;;;;;48.15;39.17;;;21.40;99.90;;;;;;5073447;28;20032;-76
2023/09/10 03:39:34;;;;;;;52.00;39.22;;;21.40;99.90;;;;;;5090289;28;20078;-76
2023/09/10 03:42:00;;;;;;;51.47;39.67;;;21.40;99.90;;;;;;5081416;28;20028;-77
2023/09/10 03:44:25;;;;;;;52.75;42.05;;;21.40;99.90;;;;;;5090291;28;20027;-76
2023/09/10 03:46:52;;;;;;;55.53;42.65;;;21.40;99.90;;;;;;5083982;28;20052;-76
2023/09/10 03:49:18;;;;;;;51.85;42.85;;;21.40;99.90;;;;;;5090592;28;20043;-76
2023/09/10 03:51:44;;;;;;;52.97;40.67;;;21.40;99.90;;;;;;5088704;28;20490;-76
2023/09/10 03:54:11;;;;;;;49.00;39.53;;;21.30;99.90;;;;;;5090059;28;20024;-76
2023/09/10 03:56:38;;;;;;;52.95;41.92;;;21.40;99.90;;;;;;5087121;28;20024;-76
2023/09/10 03:59:05;;;;;;;53.95;42.13;;;21.30;99.90;;;;;;5076022;28;20044;-76
2023/09/10 04:01:31;;;;;;;54.28;40.65;;;21.30;99.90;;;;;;5074481;28;20020;-76
2023/09/10 04:03:56;;;;;;;56.85;41.22;;;21.30;99.90;;;;;;5090005;28;20019;-76
2023/09/10 04:06:22;;;;;;;51.58;41.75;;;21.30;99.90;;;;;;5089406;28;20490;-76
2023/09/10 04:08:48;;;;;;;53.80;42.25;;;21.30;99.90;;;;;;5089489;28;20016;-76
2023/09/10 04:11:13;;;;;;;52.30;42.80;;;21.30;99.90;;;;;;5086851;28;20046;-76
2023/09/10 04:13:39;;;;;;;58.78;45.47;;;21.30;99.90;;;;;;5086179;28;20324;-76
2023/09/10 04:16:05;;;;;;;59.88;46.83;;;21.30;99.90;;;;;;5090224;28;20031;-76
2023/09/10 04:18:30;;;;;;;59.83;46.10;;;21.30;99.90;;;;;;5073303;28;20016;-76
2023/09/10 04:20:56;;;;;;;63.17;46.25;;;21.30;99.90;;;;;;5080938;28;20020;-76
2023/09/10 04:23:21;;;;;;;60.15;44.65;;;21.30;99.90;;;;;;5079449;28;20028;-76
2023/09/10 04:25:50;;;;;;;60.08;46.38;;;21.30;99.90;;;;;;5071156;28;20020;-76
2023/09/10 04:28:16;;;;;;;57.83;45.78;;;21.30;99.90;;;;;;5072867;28;20375;-76
2023/09/10 04:30:42;;;;;;;61.90;48.45;;;21.20;99.90;;;;;;5079820;28;20020;-76
2023/09/10 04:33:07;;;;;;;64.70;49.83;;;21.30;99.90;;;;;;5077637;28;20479;-76
2023/09/10 04:35:33;;;;;;;64.35;50.03;;;21.20;99.90;;;;;;5083507;28;20032;-76
2023/09/10 04:37:59;;;;;;;68.82;49.30;;;21.20;99.90;;;;;;5092999;28;20020;-76
2023/09/10 04:40:24;;;;;;;67.78;50.67;;;21.20;99.90;;;;;;5093278;28;20056;-76
2023/09/10 04:42:52;;;;;;;65.28;49.40;;;21.20;99.90;;;;;;5092893;28;20479;-76
2023/09/10 04:45:17;;;;;;;65.25;50.08;;;21.20;99.90;;;;;;5093297;28;20056;-76
2023/09/10 04:47:43;;;;;;;66.55;50.90;;;21.20;99.90;;;;;;5078565;28;20540;-76
2023/09/10 04:50:09;;;;;;;73.07;53.38;;;21.20;99.90;;;;;;5092952;28;20386;-76
2023/09/10 04:52:34;;;;;;;60.40;47.63;;;21.20;99.90;;;;;;5089018;28;20032;-76
2023/09/10 04:55:00;;;;;;;64.50;49.05;;;21.10;99.90;;;;;;5088610;28;20017;-76
2023/09/10 04:57:26;;;;;;;69.35;51.50;;;21.10;99.90;;;;;;5081541;28;20630;-76
2023/09/10 04:59:52;;;;;;;66.00;50.13;;;21.10;99.90;;;;;;5084578;28;20105;-76
2023/09/10 05:02:17;;;;;;;71.80;52.42;;;21.10;99.90;;;;;;5089013;28;20477;-76
2023/09/10 05:04:43;;;;;;;69.53;52.95;;;21.20;99.90;;;;;;5092569;28;20012;-76
2023/09/10 05:07:08;;;;;;;72.00;53.17;;;21.10;99.90;;;;;;5090434;28;20028;-76
2023/09/10 05:09:34;;;;;;;70.00;52.67;;;21.10;99.90;;;;;;5091747;28;20471;-76
2023/09/10 05:11:59;;;;;;;70.10;52.67;;;21.10;99.90;;;;;;5079143;28;20020;-76
2023/09/10 05:14:26;;;;;;;69.45;54.20;;;21.10;99.90;;;;;;5084396;28;20110;-76
2023/09/10 05:16:52;;;;;;;73.60;53.97;;;21.10;99.90;;;;;;5081812;28;20042;-76
2023/09/10 05:19:18;;;;;;;68.18;52.42;;;21.10;99.90;;;;;;5085701;28;20028;-76
2023/09/10 05:21:43;;;;;;;72.40;52.50;;;21.10;99.90;;;;;;5089923;28;20047;-76
2023/09/10 05:24:09;;;;;;;75.18;55.13;;;21.00;99.90;;;;;;5084909;28;20016;-76
2023/09/10 05:26:35;;;;;;;76.05;54.70;;;21.00;99.90;;;;;;5092504;28;20039;-76
2023/09/10 05:29:00;;;;;;;67.82;51.22;;;21.10;99.90;;;;;;5075483;28;20024;-76
2023/09/10 05:31:26;;;;;;;71.95;55.13;;;21.10;99.90;;;;;;5081927;28;20016;-76
2023/09/10 05:33:51;;;;;;;73.28;54.08;;;21.10;99.90;;;;;;5092154;28;20463;-76
2023/09/10 05:36:17;;;;;;;70.75;51.63;;;21.10;99.90;;;;;;5089254;28;20035;-76
2023/09/10 05:38:43;;;;;;;69.90;53.63;;;21.10;99.90;;;;;;5080843;28;20091;-76
2023/09/10 05:41:08;;;;;;;70.07;51.92;;;21.10;99.90;;;;;;5090821;28;20031;-76
2023/09/10 05:43:34;;;;;;;68.63;53.72;;;21.10;99.90;;;;;;5091985;28;20035;-76
2023/09/10 05:45:59;;;;;;;72.35;52.80;;;21.10;99.90;;;;;;5079277;28;21300;-75
2023/09/10 05:48:25;;;;;;;74.07;55.10;;;21.10;99.90;;;;;;5092004;28;20016;-76
2023/09/10 05:50:58;;;;;;;72.03;54.47;;;21.10;99.90;;;;;;5091806;28;20031;-76
2023/09/10 05:53:24;;;;;;;67.45;52.75;;;21.10;99.90;;;;;;5085059;28;20024;-76
2023/09/10 05:55:50;;;;;;;73.55;55.47;;;21.10;99.90;;;;;;5091693;28;20012;-77
2023/09/10 05:58:15;;;;;;;74.82;56.05;;;21.10;99.90;;;;;;5091333;28;20039;-77
2023/09/10 06:00:41;;;;;;;72.15;55.35;;;21.10;99.90;;;;;;5087939;28;20142;-77
2023/09/10 06:03:09;;;;;;;72.45;54.63;;;21.10;99.90;;;;;;5084456;28;20031;-76
2023/09/10 06:05:35;;;;;;;69.80;52.70;;;21.10;99.90;;;;;;5089487;28;20020;-76
2023/09/10 06:08:01;;;;;;;76.80;53.78;;;21.10;99.90;;;;;;5090683;28;20483;-76
2023/09/10 06:10:27;;;;;;;68.75;51.13;;;21.10;99.90;;;;;;5088514;28;20021;-76
2023/09/10 06:12:53;;;;;;;72.88;54.15;;;21.20;99.90;;;;;;5091263;28;20479;-76
2023/09/10 06:15:19;;;;;;;73.53;52.75;;;21.20;99.90;;;;;;5090595;28;20036;-76
2023/09/10 06:17:45;;;;;;;67.88;51.13;;;21.20;99.90;;;;;;5091303;28;20035;-76
2023/09/10 06:20:11;;;;;;;74.57;55.40;;;21.30;99.90;;;;;;5080930;28;20031;-76
2023/09/10 06:22:37;;;;;;;68.20;50.72;;;21.30;99.90;;;;;;5090838;28;20039;-77
2023/09/10 06:25:03;;;;;;;68.65;51.00;;;21.30;99.90;;;;;;5096340;28;20028;-77
2023/09/10 06:27:29;;;;;;;70.75;55.22;;;21.30;99.90;;;;;;5093180;28;20417;-77
2023/09/10 06:29:54;;;;;;;70.88;55.85;;;21.30;99.90;;;;;;5087080;28;20065;-77
2023/09/10 06:32:20;;;;;;;79.78;57.83;;;21.30;99.90;;;;;;5089591;28;20032;-77
2023/09/10 06:34:45;;;;;;;77.22;57.17;;;21.40;99.90;;;;;;5082094;28;20065;-77
2023/09/10 06:37:11;;;;;;;76.82;56.75;;;21.40;99.90;;;;;;5087877;28;20024;-77
2023/09/10 06:39:39;;;;;;;76.13;55.40;;;21.40;99.90;;;;;;5090522;28;20020;-77
2023/09/10 06:42:08;;;;;;;76.88;56.00;;;21.50;99.90;;;;;;5091081;28;20031;-77
2023/09/10 06:44:33;;;;;;;75.18;54.45;;;21.50;99.90;;;;;;5085914;28;20040;-77
2023/09/10 06:47:02;;;;;;;71.70;53.72;;;21.50;99.90;;;;;;5071136;28;20059;-77
2023/09/10 06:49:28;;;;;;;75.53;56.15;;;21.60;99.90;;;;;;5082512;28;20103;-77
2023/09/10 06:51:53;;;;;;;72.25;54.33;;;21.60;99.90;;;;;;5085482;28;20107;-77
2023/09/10 06:54:19;;;;;;;68.10;51.63;;;21.60;99.90;;;;;;5086553;28;20084;-77
2023/09/10 06:56:44;;;;;;;73.75;55.30;;;21.60;99.90;;;;;;5077964;28;20057;-77
2023/09/10 06:59:10;;;;;;;70.10;53.03;;;21.70;99.90;;;;;;5086192;28;20036;-69
2023/09/10 07:01:37;;;;;;;75.80;54.85;;;21.70;99.90;;;;;;5085825;28;20491;-69
2023/09/10 07:04:19;;;;;;;71.22;52.63;;;21.70;99.90;;;;;;5076203;28;20029;-72
2023/09/10 07:06:49;;;;;;;68.70;51.47;;;21.80;99.90;;;;;;5080768;28;20072;-72
2023/09/10 07:09:21;;;;;;;71.68;55.00;;;21.80;99.90;;;;;;5088398;28;20020;-72
2023/09/10 07:11:48;;;;;;;81.00;56.35;;;21.80;99.90;;;;;;5073951;28;20035;-70
2023/09/10 07:14:13;;;;;;;76.85;53.35;;;21.90;99.90;;;;;;5072882;28;20031;-70
2023/09/10 07:16:39;;;;;;;74.45;53.88;;;22.00;99.90;;;;;;5083722;28;20032;-71
2023/09/10 07:19:05;;;;;;;74.13;54.03;;;22.00;99.90;;;;;;5089428;28;20024;-70
2023/09/10 07:21:30;;;;;;;77.50;54.78;;;22.10;99.90;;;;;;5082779;28;20031;-71
2023/09/10 07:23:56;;;;;;;75.50;55.28;;;22.10;99.90;;;;;;5084033;28;20103;-70
2023/09/10 07:26:22;;;;;;;68.20;50.35;;;22.20;99.90;;;;;;5079258;28;20027;-70
2023/09/10 07:28:47;;;;;;;70.47;52.97;;;22.20;99.90;;;;;;5072717;28;20021;-74
2023/09/10 07:31:13;;;;;;;68.50;50.92;;;22.30;99.90;;;;;;5083391;28;20421;-73
2023/09/10 07:33:38;;;;;;;70.60;51.42;;;22.40;99.90;;;;;;5076193;28;20391;-72
2023/09/10 07:36:04;;;;;;;69.70;51.50;;;22.50;99.90;;;;;;5078191;28;20056;-72
2023/09/10 07:38:30;;;;;;;68.30;50.63;;;22.60;99.90;;;;;;5074565;28;20020;-71
2023/09/10 07:40:55;;;;;;;65.50;48.53;;;22.70;99.90;;;;;;5081280;28;20020;-73
2023/09/10 07:43:24;;;;;;;68.03;50.92;;;22.80;99.90;;;;;;5086226;28;20161;-71
2023/09/10 07:45:50;;;;;;;74.85;51.00;;;22.90;99.90;;;;;;5076573;28;20391;-71
2023/09/10 07:48:15;;;;;;;67.85;48.67;;;23.00;99.90;;;;;;5091036;28;20028;-71
2023/09/10 07:50:42;;;;;;;66.55;47.65;;;23.10;99.90;;;;;;5081834;28;20047;-71
2023/09/10 07:53:08;;;;;;;65.72;46.53;;;23.20;99.90;;;;;;5074551;28;20561;-71
2023/09/10 07:55:36;;;;;;;55.65;41.83;;;23.30;99.90;;;;;;5081069;28;20017;-71
2023/09/10 07:58:02;;;;;;;60.80;45.60;;;23.50;99.90;;;;;;5073944;28;20029;-72
2023/09/10 08:00:29;;;;;;;66.32;46.95;;;23.60;99.90;;;;;;5074840;28;20024;-71
2023/09/10 08:02:55;;;;;;;65.05;45.92;;;23.70;99.90;;;;;;5081500;28;20051;-71
2023/09/10 08:05:20;;;;;;;61.75;43.97;;;23.80;99.90;;;;;;5083272;28;20020;-71
2023/09/10 08:07:46;;;;;;;60.88;44.20;;;23.90;99.90;;;;;;5092562;28;20016;-71
2023/09/10 08:10:12;;;;;;;59.13;44.38;;;24.10;99.90;;;;;;5084105;28;20043;-71
2023/09/10 08:12:37;;;;;;;59.20;43.80;;;24.20;99.90;;;;;;5084446;28;20099;-71
2023/09/10 08:15:04;;;;;;;60.88;43.40;;;24.40;99.90;;;;;;5081296;28;20459;-71
2023/09/10 08:17:30;;;;;;;55.60;39.35;;;24.50;99.90;;;;;;5093449;28;20020;-71
2023/09/10 08:19:55;;;;;;;53.60;40.30;;;24.70;99.90;;;;;;5083321;28;20016;-70
2023/09/10 08:22:21;;;;;;;55.50;41.22;;;24.80;99.90;;;;;;5087873;28;20074;-71
2023/09/10 08:24:48;;;;;;;49.95;38.95;;;25.00;99.90;;;;;;5084441;28;20027;-71
2023/09/10 08:27:13;;;;;;;49.58;37.78;;;25.20;99.90;;;;;;5081293;28;20027;-71
2023/09/10 08:29:39;;;;;;;54.10;38.10;;;25.40;99.90;;;;;;5089896;28;20095;-71
2023/09/10 08:32:05;;;;;;;48.90;38.40;;;25.60;99.90;;;;;;5089197;28;20032;-70
2023/09/10 08:34:30;;;;;;;55.17;40.55;;;25.70;99.90;;;;;;5092513;28;20028;-70
2023/09/10 08:36:56;;;;;;;48.33;37.03;;;25.90;99.90;;;;;;5083435;28;20028;-70
2023/09/10 08:39:22;;;;;;;48.53;35.78;;;26.10;99.90;;;;;;5092423;28;20043;-70
2023/09/10 08:42:05;;;;;;;51.30;37.67;;;26.20;99.90;;;;;;5088610;28;20077;-70
2023/09/10 08:44:32;;;;;;;50.28;35.28;;;26.40;99.90;;;;;;5085143;28;20032;-70
2023/09/10 08:47:01;;;;;;;42.08;31.15;;;26.50;99.90;;;;;;5088412;28;20461;-70
2023/09/10 08:49:28;;;;;;;43.60;31.90;;;26.70;99.90;;;;;;5081018;28;20379;-70
2023/09/10 08:51:54;;;;;;;42.25;31.00;;;26.90;99.90;;;;;;5091164;28;20028;-70
2023/09/10 08:54:20;;;;;;;43.13;30.98;;;27.10;99.90;;;;;;5082507;28;20034;-70
2023/09/10 08:56:48;;;;;;;42.17;28.13;;;27.30;99.90;;;;;;5082041;28;20525;-70
2023/09/10 08:59:15;;;;;;;38.72;27.10;;;27.50;99.90;;;;;;5085657;28;20138;-70
2023/09/10 09:01:44;;;;;;;39.15;27.63;;;27.70;99.90;;;;;;5088363;28;20450;-70
2023/09/10 09:04:12;;;;;;;34.38;26.48;;;27.90;99.90;;;;;;5086590;28;20040;-71
2023/09/10 09:06:40;;;;;;;38.35;26.67;;;28.00;99.90;;;;;;5088011;28;20459;-76
2023/09/10 09:09:07;;;;;;;39.95;26.00;;;28.10;99.90;;;;;;5082423;28;20078;-76
2023/09/10 09:11:37;;;;;;;30.92;22.35;;;28.30;99.90;;;;;;5087284;28;20033;-76
2023/09/10 09:14:07;;;;;;;28.75;19.98;;;28.40;99.90;;;;;;5084479;28;20400;-76
2023/09/10 09:16:34;;;;;;;31.67;22.45;;;28.50;99.90;;;;;;5084832;28;20099;-76
2023/09/10 09:19:09;;;;;;;30.23;21.17;;;28.60;99.90;;;;;;5103441;28;20024;-76
2023/09/10 09:21:37;;;;;;;34.13;23.42;;;28.70;99.90;;;;;;5094285;28;20426;-75
2023/09/10 09:24:03;;;;;;;32.05;21.10;;;28.80;99.90;;;;;;5077274;28;20020;-76
2023/09/10 09:26:43;;;;;;;34.78;21.02;;;28.90;99.90;;;;;;5083251;28;20017;-76
2023/09/10 09:29:10;;;;;;;29.60;21.52;;;29.10;99.90;;;;;;5087696;28;20028;-76
2023/09/10 09:31:35;;;;;;;30.38;20.42;;;29.20;99.90;;;;;;5092519;28;20049;-76
2023/09/10 09:34:02;;;;;;;30.92;19.23;;;29.20;99.90;;;;;;5078090;28;20457;-76
2023/09/10 09:36:28;;;;;;;25.85;18.83;;;29.40;99.90;;;;;;5084748;28;20019;-76
2023/09/10 09:38:54;;;;;;;27.50;19.42;;;29.50;99.90;;;;;;5091848;28;20461;-76
2023/09/10 09:41:20;;;;;;;26.40;17.13;;;29.70;99.90;;;;;;5078300;28;20490;-76
2023/09/10 09:43:46;;;;;;;27.75;17.70;;;29.80;99.90;;;;;;5078808;28;20158;-77
2023/09/10 09:46:12;;;;;;;26.42;17.75;;;30.00;99.90;;;;;;5091919;28;20067;-77
2023/09/10 09:48:38;;;;;;;29.38;16.75;;;30.10;99.90;;;;;;5085362;28;20035;-77
2023/09/10 09:51:04;;;;;;;23.98;15.85;;;30.10;99.90;;;;;;5084240;28;20330;-76
2023/09/10 09:53:32;;;;;;;26.27;15.93;;;30.20;99.90;;;;;;5082331;28;20031;-76
2023/09/10 09:56:06;;;;;;;24.42;15.30;;;30.40;99.90;;;;;;5091974;28;20513;-76
2023/09/10 09:58:32;;;;;;;20.93;14.07;;;30.40;99.90;;;;;;5087817;28;20045;-76
2023/09/10 10:01:00;;;;;;;26.42;14.30;;;30.50;99.90;;;;;;5076420;28;20031;-77
2023/09/10 10:03:31;;;;;;;26.88;15.10;;;30.60;99.90;;;;;;5086345;28;20479;-77
2023/09/10 10:05:56;;;;;;;25.75;13.88;;;30.70;99.90;;;;;;5086643;28;20471;-77
2023/09/10 10:08:28;;;;;;;22.08;13.15;;;30.70;99.90;;;;;;5087000;28;20034;-77
2023/09/10 10:10:54;;;;;;;24.10;12.68;;;30.80;99.90;;;;;;5088457;28;20373;-76
2023/09/10 10:13:24;;;;;;;17.98;10.93;;;30.90;99.90;;;;;;5073584;28;20021;-77
2023/09/10 10:15:54;;;;;;;18.42;11.05;;;30.90;99.90;;;;;;5072362;28;20062;-76
2023/09/10 10:18:21;;;;;;;21.40;8.55;;;31.00;99.90;;;;;;5088150;28;20051;-77
2023/09/10 10:20:49;;;;;;;16.67;9.15;;;31.10;99.90;;;;;;5081224;28;20028;-76
2023/09/10 10:23:17;;;;;;;16.33;8.35;;;31.20;99.90;;;;;;5079962;28;20474;-76
2023/09/10 10:25:44;;;;;;;19.42;8.77;;;31.20;99.90;;;;;;5082280;28;20024;-75
2023/09/10 10:28:11;;;;;;;20.33;8.70;;;31.30;99.40;;;;;;5082585;28;20024;-76
2023/09/10 10:30:50;;;;;;;16.60;9.00;;;31.40;98.70;;;;;;5091004;28;20027;-77
2023/09/10 10:33:23;;;;;;;15.40;8.57;;;31.40;97.90;;;;;;5074844;28;20076;-76
2023/09/10 10:36:29;;;;;;;14.82;8.80;;;31.40;97.80;;;;;;5090214;28;20034;-76
2023/09/10 10:38:55;;;;;;;20.42;9.07;;;31.60;97.70;;;;;;5071988;28;20627;-76
2023/09/10 10:41:25;;;;;;;12.98;8.13;;;31.70;97.20;;;;;;5082401;28;20036;-77
2023/09/10 10:43:55;;;;;;;13.90;8.02;;;31.70;96.80;;;;;;5086444;28;20027;-76
2023/09/10 10:46:25;;;;;;;14.57;8.95;;;31.70;97.10;;;;;;5079601;28;20499;-77
2023/09/10 10:48:51;;;;;;;21.65;8.65;;;31.90;96.50;;;;;;5079098;28;20016;-77
2023/09/10 10:51:17;;;;;;;16.77;8.40;;;31.90;96.40;;;;;;5079878;28;20452;-78
2023/09/10 10:53:43;;;;;;;18.67;8.48;;;32.00;95.80;;;;;;5090517;28;20471;-77
2023/09/10 10:56:10;;;;;;;19.33;8.43;;;32.00;95.10;;;;;;5089947;28;20058;-77
2023/09/10 10:58:40;;;;;;;17.15;8.65;;;32.00;94.60;;;;;;5071959;28;20052;-75
2023/09/10 11:01:06;;;;;;;18.65;8.55;;;32.00;94.50;;;;;;5071780;28;20052;-77
2023/09/10 11:03:32;;;;;;;17.08;7.55;;;32.10;94.00;;;;;;5070793;28;20051;-77
2023/09/10 11:06:04;;;;;;;17.08;7.60;;;32.10;93.40;;;;;;5077124;28;20028;-78
2023/09/10 11:08:40;;;;;;;20.48;7.90;;;32.20;93.10;;;;;;5078394;28;20103;-78
2023/09/10 11:11:10;;;;;;;13.68;7.43;;;32.30;93.00;;;;;;5091809;28;20413;-78
2023/09/10 11:14:02;;;;;;;13.35;6.72;;;32.40;93.10;;;;;;5086959;28;20114;-78
2023/09/10 11:16:42;;;;;;;17.33;6.35;;;32.50;91.00;;;;;;5079892;28;20028;-77
2023/09/10 11:19:44;;;;;;;17.70;6.57;;;32.50;88.90;;;;;;5087029;28;20036;-78
2023/09/10 11:22:10;;;;;;;12.60;6.20;;;32.50;87.40;;;;;;5082018;28;20025;-79
2023/09/10 11:24:36;;;;;;;12.98;6.03;;;32.50;88.00;;;;;;5086227;28;20079;-78
2023/09/10 11:27:34;;;;;;;11.80;6.15;;;32.60;87.20;;;;;;5083885;28;20017;-78
2023/09/10 11:30:23;;;;;;;15.10;6.45;;;32.70;85.10;;;;;;5073778;28;20033;-77
2023/09/10 11:33:09;;;;;;;17.75;6.07;;;32.70;84.40;;;;;;5075229;28;20068;-77
2023/09/10 11:35:37;;;;;;;14.35;6.40;;;32.70;85.20;;;;;;5091409;28;20016;-79
2023/09/10 11:38:03;;;;;;;15.10;6.60;;;32.80;84.80;;;;;;5085984;28;20020;-78
2023/09/10 11:40:28;;;;;;;11.93;6.10;;;32.80;83.60;;;;;;5074562;28;20046;-78
2023/09/10 11:42:54;;;;;;;17.33;6.18;;;32.90;84.20;;;;;;5084616;28;20551;-77
2023/09/10 11:45:20;;;;;;;14.73;6.05;;;33.00;83.50;;;;;;5079137;28;20066;-77
2023/09/10 11:47:49;;;;;;;13.13;6.35;;;33.00;82.70;;;;;;5080995;28;20028;-77
2023/09/10 11:50:23;;;;;;;15.48;6.28;;;33.00;82.10;;;;;;5087092;28;20059;-77
2023/09/10 11:52:49;;;;;;;15.35;6.50;;;33.00;81.30;;;;;;5085962;28;20097;-77
2023/09/10 11:55:17;;;;;;;13.52;6.22;;;32.90;81.60;;;;;;5082441;28;20052;-77
2023/09/10 11:57:43;;;;;;;15.25;6.40;;;33.00;82.20;;;;;;5075573;28;20052;-77
2023/09/10 12:00:13;;;;;;;17.33;6.38;;;33.00;81.70;;;;;;5089158;28;20072;-77
2023/09/10 12:02:40;;;;;;;16.15;6.38;;;33.10;81.80;;;;;;5089139;28;20016;-77
2023/09/10 12:05:07;;;;;;;16.58;6.20;;;33.20;81.30;;;;;;5086373;28;20016;-77
2023/09/10 12:07:33;;;;;;;12.00;5.85;;;33.20;80.20;;;;;;5090440;28;20027;-77
2023/09/10 12:09:59;;;;;;;12.82;6.20;;;33.20;80.20;;;;;;5088090;28;20028;-77
2023/09/10 12:12:32;;;;;;;18.65;6.20;;;33.10;79.60;;;;;;5070515;28;20025;-77
2023/09/10 12:14:59;;;;;;;12.82;6.50;;;33.10;78.60;;;;;;5090778;28;20036;-77
2023/09/10 12:17:25;;;;;;;17.17;6.82;;;33.00;78.60;;;;;;5088340;28;20028;-77
2023/09/10 12:19:51;;;;;;;16.30;6.53;;;33.00;79.70;;;;;;5080553;28;20016;-75
2023/09/10 12:22:19;;;;;;;25.95;7.05;;;33.10;79.50;;;;;;5089295;28;20028;-76
2023/09/10 12:24:45;;;;;;;13.70;6.28;;;33.10;79.20;;;;;;5088338;28;20016;-76
2023/09/10 12:27:13;;;;;;;12.43;5.68;;;33.20;79.00;;;;;;5085237;28;20571;-76
2023/09/10 12:29:40;;;;;;;17.67;6.18;;;33.20;77.60;;;;;;5084141;28;20008;-76